パリ/シャルル・ド・ゴール の空港の天気 - METARとTAF

シャルル・ド・ゴール国際空港(パリ) ( LFPG / CDG ) - フランス Paris
飛行場実況気象(Metar)
観測時間08/22 18:30 CEST (08/22 16:30 UTC)
風向・風速北北東 3m/s
視程10km以上
天気現象
なし
気温25℃
湿度36%
気圧1025hPa
METARLFPG 221630Z 03006KT 350V060 CAVOK 25/09 Q1025 NOSIG
過去の天気等 Google飛行場航空写真 Wunderground天気予報

過去48時間のMETAR

飛行場予報(TAF)
発表時間: 8/22 13:00 CEST (8/22 11:00 UTC)
予報対象時間: 22日14時 CEST ~ 23日20時 CEST
風向・風速北北東 3m/s
視程10km以上
なし
TAF LFPG 221100Z 2212/2318 02005KT CAVOK TX28/2315Z TN14/2305Z